createdAt,value
2022-11-20T00:02:11.555Z,99916.88
2022-11-20T00:05:14.806Z,99921.28
2022-11-20T00:08:16.531Z,99911.13
2022-11-20T00:11:20.445Z,99911.25
2022-11-20T00:14:22.140Z,99908.31
2022-11-20T00:17:23.904Z,99904.28
2022-11-20T00:20:27.179Z,99906.50
2022-11-20T00:23:28.963Z,99899.09
2022-11-20T00:26:31.225Z,99908.91
2022-11-20T00:29:32.923Z,99910.47
2022-11-20T00:32:34.893Z,99901.69
2022-11-20T00:35:37.889Z,99905.34
2022-11-20T00:38:39.626Z,99894.19
2022-11-20T00:41:41.283Z,99909.03
2022-11-20T00:44:42.908Z,99918.81
2022-11-20T00:47:44.541Z,99919.94
2022-11-20T00:50:47.452Z,99922.22
2022-11-20T00:53:49.350Z,99911.78
2022-11-20T00:56:50.973Z,99918.69
2022-11-20T00:59:52.584Z,99920.41
2022-11-20T01:02:56.582Z,99923.06
2022-11-20T01:06:02.419Z,99926.38
2022-11-20T01:09:05.965Z,99926.16
2022-11-20T01:12:07.598Z,99920.97
2022-11-20T01:15:10.046Z,99914.84
2022-11-20T01:18:11.636Z,99915.03
2022-11-20T01:21:16.976Z,99918.16
2022-11-20T01:24:20.223Z,99912.25
2022-11-20T01:27:21.881Z,99909.59
2022-11-20T01:30:23.474Z,99898.31
2022-11-20T01:33:25.685Z,99893.25
2022-11-20T01:36:31.005Z,99897.16
2022-11-20T01:39:32.456Z,99896.19
2022-11-20T01:42:52.669Z,99892.81
2022-11-20T01:46:00.633Z,99888.88
2022-11-20T01:49:05.039Z,99878.19
2022-11-20T01:52:15.859Z,99882.84
2022-11-20T01:55:22.856Z,99878.50
2022-11-20T01:58:29.569Z,99875.16
2022-11-20T02:01:31.328Z,99888.59
2022-11-20T02:04:32.969Z,99887.63
2022-11-20T02:07:36.504Z,99879.69
2022-11-20T02:10:38.337Z,99881.66
2022-11-20T02:13:46.414Z,99889.66
2022-11-20T02:16:50.339Z,99889.66
2022-11-20T02:19:52.252Z,99890.91
2022-11-20T02:23:00.974Z,99892.03
2022-11-20T02:26:08.411Z,99876.53
2022-11-20T02:29:10.411Z,99870.38
2022-11-20T02:32:19.627Z,99884.66
2022-11-20T02:35:41.882Z,99874.66
2022-11-20T02:38:44.583Z,99870.03
2022-11-20T02:41:47.644Z,99874.88
2022-11-20T02:44:49.227Z,99867.59
2022-11-20T02:47:50.940Z,99864.38
2022-11-20T02:50:52.533Z,99868.88
2022-11-20T02:53:54.166Z,99876.69
2022-11-20T02:56:57.133Z,99868.50
2022-11-20T02:59:58.726Z,99864.25
2022-11-20T03:03:00.372Z,99857.97
2022-11-20T03:06:02.175Z,99855.13
2022-11-20T03:09:03.812Z,99855.63
2022-11-20T03:12:07.598Z,99860.81
2022-11-20T03:15:10.419Z,99866.97
2022-11-20T03:18:12.045Z,99865.34
2022-11-20T03:21:16.462Z,99867.22
2022-11-20T03:24:18.083Z,99862.91
2022-11-20T03:27:21.085Z,99863.31
2022-11-20T03:30:27.596Z,99860.31
2022-11-20T03:33:31.984Z,99857.16
2022-11-20T03:36:34.438Z,99864.56
2022-11-20T03:39:36.083Z,99860.56
2022-11-20T03:42:48.162Z,99869.19
2022-11-20T03:45:49.817Z,99877.34
2022-11-20T03:48:52.342Z,99878.09
2022-11-20T03:51:54.036Z,99880.22
2022-11-20T03:54:55.682Z,99868.72
2022-11-20T03:57:58.595Z,99872.97
2022-11-20T04:01:06.262Z,99874.59
2022-11-20T04:04:07.949Z,99869.16
2022-11-20T04:07:09.728Z,99866.63
2022-11-20T04:10:11.515Z,99867.56
2022-11-20T04:13:17.628Z,99858.69
2022-11-20T04:16:20.091Z,99855.63
2022-11-20T04:19:22.018Z,99856.19
2022-11-20T04:22:23.751Z,99859.81
2022-11-20T04:25:25.364Z,99851.19
2022-11-20T04:28:28.273Z,99848.81
2022-11-20T04:31:32.409Z,99843.22
2022-11-20T04:34:34.184Z,99837.81
2022-11-20T04:37:35.842Z,99830.69
2022-11-20T04:40:37.463Z,99835.34
2022-11-20T04:43:40.404Z,99838.31
2022-11-20T04:46:43.324Z,99834.63
2022-11-20T04:49:44.951Z,99833.84
2022-11-20T04:52:46.596Z,99838.06
2022-11-20T04:55:48.340Z,99833.50
2022-11-20T04:58:51.890Z,99829.91
2022-11-20T05:01:53.568Z,99833.97
2022-11-20T05:04:55.397Z,99827.97
2022-11-20T05:07:57.290Z,99823.34
2022-11-20T05:11:01.495Z,99828.66
2022-11-20T05:14:04.581Z,99825.88
2022-11-20T05:17:06.378Z,99820.69
2022-11-20T05:20:09.269Z,99825.22
2022-11-20T05:23:10.884Z,99826.91
2022-11-20T05:26:17.740Z,99825.84
2022-11-20T05:29:21.043Z,99821.88
2022-11-20T05:32:26.218Z,99819.06
2022-11-20T05:35:27.816Z,99822.03
2022-11-20T05:38:29.511Z,99818.72
2022-11-20T05:41:31.206Z,99817.22
2022-11-20T05:44:34.159Z,99820.91
2022-11-20T05:47:36.205Z,99818.44
2022-11-20T05:50:37.811Z,99812.22
2022-11-20T05:53:43.746Z,99810.41
2022-11-20T05:56:48.503Z,99811.88
2022-11-20T05:59:51.467Z,99814.47
2022-11-20T06:02:53.067Z,99818.22
2022-11-20T06:05:54.721Z,99812.63
2022-11-20T06:08:56.862Z,99810.50
2022-11-20T06:11:58.515Z,99798.63
2022-11-20T06:15:01.824Z,99809.84
2022-11-20T06:18:03.574Z,99802.84
2022-11-20T06:21:07.063Z,99811.78
2022-11-20T06:24:10.580Z,99811.53
2022-11-20T06:27:12.250Z,99809.97
2022-11-20T06:30:16.112Z,99804.50
2022-11-20T06:33:17.658Z,99807.09
2022-11-20T06:36:21.217Z,99812.63
2022-11-20T06:39:23.089Z,99811.63
2022-11-20T06:42:24.958Z,99813.06
2022-11-20T06:45:27.950Z,99823.44
2022-11-20T06:48:30.546Z,99837.41
2022-11-20T06:51:32.280Z,99830.75
2022-11-20T06:54:34.028Z,99823.84
2022-11-20T06:57:35.728Z,99827.16
2022-11-20T07:00:38.877Z,99823.81
2022-11-20T07:03:41.336Z,99821.56
2022-11-20T07:06:42.969Z,99815.44
2022-11-20T07:09:44.524Z,99816.13
2022-11-20T07:12:50.808Z,99831.63
2022-11-20T07:15:53.874Z,99833.66
2022-11-20T07:18:55.494Z,99822.53
2022-11-20T07:21:57.151Z,99827.88
2022-11-20T07:24:58.761Z,99819.50
2022-11-20T07:28:01.092Z,99828.59
2022-11-20T07:31:05.806Z,99822.16
2022-11-20T07:34:07.512Z,99819.47
2022-11-20T07:37:10.476Z,99816.78
2022-11-20T07:40:13.302Z,99820.81
2022-11-20T07:43:15.046Z,99809.50
2022-11-20T07:46:18.959Z,99816.72
2022-11-20T07:49:20.833Z,99820.25
2022-11-20T07:52:22.660Z,99820.09
2022-11-20T07:55:24.275Z,99824.28
2022-11-20T07:58:25.928Z,99832.31
2022-11-20T08:01:28.970Z,99849.00
2022-11-20T08:04:30.652Z,99850.75
2022-11-20T08:07:36.657Z,99858.22
2022-11-20T08:10:38.307Z,99855.81
2022-11-20T08:13:58.805Z,99851.25
2022-11-20T08:17:01.808Z,99858.00
2022-11-20T08:20:04.237Z,99873.22
2022-11-20T08:23:06.898Z,99885.47
2022-11-20T08:26:08.542Z,99880.69
2022-11-20T08:29:10.334Z,99895.06
2022-11-20T08:32:13.324Z,99880.75
2022-11-20T08:35:15.170Z,99885.22
2022-11-20T08:38:16.844Z,99875.44
2022-11-20T08:41:24.911Z,99890.56
2022-11-20T08:44:26.736Z,99882.50
2022-11-20T08:47:29.928Z,99900.16
2022-11-20T08:50:34.834Z,99881.72
2022-11-20T08:53:36.513Z,99889.50
2022-11-20T08:56:38.187Z,99883.41
2022-11-20T09:03:03.348Z,99891.88
2022-11-20T09:06:06.730Z,99905.81
2022-11-20T09:09:08.556Z,99895.94
2022-11-20T09:12:10.318Z,99901.47
2022-11-20T09:15:12.704Z,99901.41
2022-11-20T09:18:15.725Z,99897.72
2022-11-20T09:21:17.759Z,99897.78
2022-11-20T09:24:19.884Z,99905.00
2022-11-20T09:27:22.518Z,99904.88
2022-11-20T09:30:24.169Z,99890.13
2022-11-20T09:33:27.297Z,99903.75
2022-11-20T09:36:29.084Z,99901.28
2022-11-20T09:39:30.744Z,99898.66
2022-11-20T09:42:41.740Z,99893.22
2022-11-20T09:45:56.760Z,99898.59
2022-11-20T09:49:18.268Z,99902.38
2022-11-20T09:52:27.928Z,99915.97
2022-11-20T09:55:31.756Z,99909.03
2022-11-20T09:58:41.061Z,99903.34
2022-11-20T10:01:44.128Z,99906.00
2022-11-20T10:04:53.437Z,99916.34
2022-11-20T10:08:04.491Z,99911.81
2022-11-20T10:11:16.182Z,99899.81
2022-11-20T10:14:31.742Z,99923.16
2022-11-20T10:17:57.826Z,99905.75
2022-11-20T10:21:11.124Z,99903.44
2022-11-20T10:24:37.657Z,99895.88
2022-11-20T10:28:12.368Z,99893.63
2022-11-20T10:31:26.121Z,99890.75
2022-11-20T10:34:35.197Z,99891.28
2022-11-20T10:37:41.385Z,99878.75
2022-11-20T10:40:46.721Z,99883.22
2022-11-20T10:43:53.100Z,99874.88
2022-11-20T10:46:55.666Z,99875.31
2022-11-20T10:50:03.974Z,99879.97
2022-11-20T10:53:21.687Z,99886.13
2022-11-20T10:56:29.395Z,99876.56
2022-11-20T10:59:44.310Z,99879.06
2022-11-20T11:02:49.251Z,99872.28
2022-11-20T11:05:55.746Z,99870.94
2022-11-20T11:09:04.168Z,99871.78
2022-11-20T11:12:08.949Z,99863.56
2022-11-20T11:15:16.238Z,99862.00
2022-11-20T11:18:26.185Z,99864.50
2022-11-20T11:21:27.922Z,99838.25
2022-11-20T11:24:46.736Z,99851.63
2022-11-20T11:27:49.467Z,99834.09
2022-11-20T11:30:51.095Z,99832.78
2022-11-20T11:33:52.789Z,99832.03
2022-11-20T11:36:58.177Z,99833.06
2022-11-20T11:40:23.498Z,99835.34
2022-11-20T11:43:44.386Z,99827.56
2022-11-20T11:46:53.678Z,99824.81
2022-11-20T11:50:17.368Z,99823.91
2022-11-20T11:53:22.125Z,99813.19
2022-11-20T11:56:25.467Z,99822.84
2022-11-20T11:59:29.909Z,99818.06
2022-11-20T12:02:40.066Z,99813.78
2022-11-20T12:05:45.856Z,99809.22
2022-11-20T12:08:52.047Z,99796.78
2022-11-20T12:11:59.941Z,99812.47
2022-11-20T12:15:01.992Z,99808.97
2022-11-20T12:18:21.755Z,99817.25
2022-11-20T12:21:32.115Z,99806.94
2022-11-20T12:24:53.151Z,99812.16
2022-11-20T12:28:22.317Z,99807.75
2022-11-20T12:31:53.734Z,99805.34
2022-11-20T12:35:11.112Z,99803.47
2022-11-20T12:38:46.110Z,99801.81
2022-11-20T12:42:41.818Z,99801.66
2022-11-20T12:45:55.102Z,99791.25
2022-11-20T12:49:13.544Z,99796.00
2022-11-20T12:52:27.254Z,99786.47
2022-11-20T12:55:43.436Z,99781.56
2022-11-20T12:58:54.443Z,99784.53
2022-11-20T13:02:04.098Z,99779.00
2022-11-20T13:05:32.247Z,99781.66
2022-11-20T13:08:36.515Z,99776.13
2022-11-20T13:11:44.404Z,99780.25
2022-11-20T13:14:51.537Z,99770.56
2022-11-20T13:17:57.274Z,99766.00
2022-11-20T13:21:00.361Z,99768.75
2022-11-20T13:24:05.526Z,99765.34
2022-11-20T13:27:21.129Z,99751.56
2022-11-20T13:30:24.941Z,99747.88
2022-11-20T13:33:32.144Z,99743.28
2022-11-20T13:36:37.510Z,99739.16
2022-11-20T13:39:39.164Z,99730.69
2022-11-20T13:42:45.599Z,99734.06
2022-11-20T13:45:56.938Z,99732.09
2022-11-20T13:48:58.819Z,99718.72
2022-11-20T13:52:28.172Z,99725.63
2022-11-20T13:55:38.789Z,99718.09
2022-11-20T13:58:54.883Z,99712.66
2022-11-20T14:01:56.813Z,99707.84
2022-11-20T14:05:01.583Z,99701.69
2022-11-20T14:08:07.131Z,99717.06
2022-11-20T14:11:16.682Z,99709.31
2022-11-20T14:14:21.960Z,99705.72
2022-11-20T14:17:30.601Z,99697.16
2022-11-20T14:20:33.495Z,99705.22
2022-11-20T14:23:36.651Z,99691.41
2022-11-20T14:26:42.091Z,99694.03
2022-11-20T14:29:45.762Z,99690.66
2022-11-20T14:32:48.651Z,99674.81
2022-11-20T14:35:52.619Z,99684.84
2022-11-20T14:38:55.784Z,99681.97
2022-11-20T14:41:57.532Z,99673.34
2022-11-20T14:45:00.803Z,99670.47
2022-11-20T14:48:02.648Z,99668.94
2022-11-20T14:51:04.306Z,99679.38
2022-11-20T14:54:11.927Z,99665.25
2022-11-20T14:57:25.632Z,99663.88
2022-11-20T15:00:28.103Z,99660.59
2022-11-20T15:03:34.347Z,99665.38
2022-11-20T15:06:37.036Z,99664.56
2022-11-20T15:09:40.038Z,99654.47
2022-11-20T15:12:48.697Z,99659.84
2022-11-20T15:15:51.959Z,99654.31
2022-11-20T15:18:53.701Z,99652.94
2022-11-20T15:21:55.584Z,99661.09
2022-11-20T15:24:58.618Z,99654.59
2022-11-20T15:28:00.330Z,99654.13
2022-11-20T15:31:03.987Z,99643.53
2022-11-20T15:34:08.356Z,99642.22
2022-11-20T15:37:10.161Z,99641.25
2022-11-20T15:40:13.761Z,99648.78
2022-11-20T15:43:15.562Z,99635.28
2022-11-20T15:46:21.103Z,99631.75
2022-11-20T15:49:24.599Z,99633.94
2022-11-20T15:52:28.517Z,99632.41
2022-11-20T15:55:33.655Z,99638.59
2022-11-20T15:58:35.379Z,99629.66
2022-11-20T16:01:37.271Z,99626.16
2022-11-20T16:04:39.342Z,99627.38
2022-11-20T16:07:42.744Z,99618.63
2022-11-20T16:10:45.930Z,99617.41
2022-11-20T16:14:06.077Z,99612.47
2022-11-20T16:17:07.733Z,99605.59
2022-11-20T16:20:11.984Z,99609.41
2022-11-20T16:23:14.034Z,99609.53
2022-11-20T16:26:18.244Z,99603.84
2022-11-20T16:29:20.164Z,99603.84
2022-11-20T16:32:21.833Z,99599.25
2022-11-20T16:35:23.564Z,99591.41
2022-11-20T16:38:25.232Z,99590.03
2022-11-20T16:41:30.548Z,99588.03
2022-11-20T16:44:32.177Z,99575.75
2022-11-20T16:47:34.487Z,99580.69
2022-11-20T16:50:36.129Z,99576.38
2022-11-20T16:53:38.654Z,99572.84
2022-11-20T16:56:41.787Z,99569.78
2022-11-20T16:59:43.469Z,99569.91
2022-11-20T17:02:45.229Z,99572.09
2022-11-20T17:05:47.061Z,99572.25
2022-11-20T17:08:49.032Z,99572.84
2022-11-20T17:11:52.481Z,99577.31
2022-11-20T17:14:54.141Z,99568.91
2022-11-20T17:17:55.806Z,99568.72
2022-11-20T17:20:57.957Z,99571.34
2022-11-20T17:24:01.917Z,99573.81
2022-11-20T17:27:04.935Z,99570.91
2022-11-20T17:30:07.560Z,99558.19
2022-11-20T17:33:09.228Z,99558.50
2022-11-20T17:36:15.843Z,99545.91
2022-11-20T17:39:17.937Z,99539.78
2022-11-20T17:42:26.833Z,99534.41
2022-11-20T17:45:28.554Z,99532.38
2022-11-20T17:48:30.705Z,99535.88
2022-11-20T17:51:34.910Z,99533.00
2022-11-20T17:54:36.591Z,99526.41
2022-11-20T17:57:56.681Z,99522.41
2022-11-20T18:01:04.954Z,99518.00
2022-11-20T18:04:06.758Z,99516.28
2022-11-20T18:07:08.616Z,99512.31
2022-11-20T18:10:10.468Z,99505.38
2022-11-20T18:13:13.498Z,99505.84
2022-11-20T18:16:15.172Z,99498.03
2022-11-20T18:19:18.918Z,99498.34
2022-11-20T18:22:20.638Z,99489.59
2022-11-20T18:25:22.293Z,99493.91
2022-11-20T18:28:25.403Z,99486.84
2022-11-20T18:31:27.343Z,99489.59
2022-11-20T18:34:29.598Z,99479.00
2022-11-20T18:37:31.874Z,99481.31
2022-11-20T18:40:34.887Z,99472.41
2022-11-20T18:43:56.625Z,99464.44
2022-11-20T18:46:58.334Z,99461.22
2022-11-20T18:50:01.388Z,99459.38
2022-11-20T18:53:03.017Z,99453.72
2022-11-20T18:56:05.445Z,99463.22
2022-11-20T18:59:09.814Z,99452.50
2022-11-20T19:02:13.910Z,99445.84
2022-11-20T19:05:15.726Z,99457.94
2022-11-20T19:08:17.434Z,99456.75
2022-11-20T19:11:19.536Z,99451.69
2022-11-20T19:14:22.811Z,99452.63
2022-11-20T19:17:26.264Z,99451.13
2022-11-20T19:20:27.863Z,99449.41
2022-11-20T19:23:29.663Z,99445.91
2022-11-20T19:26:31.320Z,99444.97
2022-11-20T19:29:34.361Z,99456.66
2022-11-20T19:32:36.162Z,99464.78
2022-11-20T19:35:37.804Z,99460.38
2022-11-20T19:38:43.681Z,99457.91
2022-11-20T19:41:49.249Z,99456.97
2022-11-20T19:44:52.911Z,99458.66
2022-11-20T19:48:09.870Z,99456.34
2022-11-20T19:51:13.466Z,99456.06
2022-11-20T19:54:16.691Z,99452.69
2022-11-20T19:57:18.729Z,99446.09
2022-11-20T20:00:28.075Z,99451.16
2022-11-20T20:03:34.000Z,99447.19
2022-11-20T20:06:38.713Z,99456.38
2022-11-20T20:09:40.389Z,99439.22
2022-11-20T20:12:41.993Z,99433.72
2022-11-20T20:15:45.124Z,99435.09
2022-11-20T20:18:47.106Z,99432.00
2022-11-20T20:21:49.986Z,99434.63
2022-11-20T20:24:52.115Z,99436.31
2022-11-20T20:27:54.014Z,99443.34
2022-11-20T20:30:57.351Z,99444.44
2022-11-20T20:33:59.394Z,99442.72
2022-11-20T20:37:01.123Z,99448.88
2022-11-20T20:40:02.897Z,99449.19
2022-11-20T20:43:04.821Z,99445.53
2022-11-20T20:46:07.886Z,99445.81
2022-11-20T20:49:09.887Z,99441.97
2022-11-20T20:52:11.720Z,99438.47
2022-11-20T20:55:13.528Z,99429.88
2022-11-20T20:58:15.170Z,99438.31
2022-11-20T21:01:19.298Z,99446.91
2022-11-20T21:04:21.086Z,99457.00
2022-11-20T21:07:22.848Z,99441.06
2022-11-20T21:10:24.541Z,99437.22
2022-11-20T21:13:26.244Z,99430.50
2022-11-20T21:16:40.774Z,99431.41
2022-11-20T21:19:42.533Z,99441.22
2022-11-20T21:22:44.130Z,99445.03
2022-11-20T21:25:45.843Z,99445.22
2022-11-20T21:28:47.969Z,99440.91
2022-11-20T21:31:51.335Z,99446.91
2022-11-20T21:34:52.978Z,99430.63
2022-11-20T21:37:54.676Z,99430.63
2022-11-20T21:40:57.277Z,99436.31
2022-11-20T21:47:23.000Z,99415.94
2022-11-20T21:50:24.694Z,99427.72
2022-11-20T21:53:26.337Z,99441.53
2022-11-20T21:56:28.133Z,99437.38
2022-11-20T21:59:29.766Z,99432.16
2022-11-20T22:02:32.795Z,99428.34
2022-11-20T22:05:34.565Z,99435.09
2022-11-20T22:08:37.261Z,99439.09
2022-11-20T22:11:38.895Z,99438.31
2022-11-20T22:14:40.537Z,99435.09
2022-11-20T22:18:02.341Z,99423.59
2022-11-20T22:21:05.835Z,99430.00
2022-11-20T22:24:08.220Z,99431.25
2022-11-20T22:27:10.360Z,99436.50
2022-11-20T22:30:13.144Z,99437.69
2022-11-20T22:33:16.082Z,99432.94
2022-11-20T22:36:19.915Z,99439.84
2022-11-20T22:39:22.962Z,99433.72
2022-11-20T22:42:24.637Z,99434.19
2022-11-20T22:45:26.230Z,99434.78
2022-11-20T22:48:29.239Z,99437.22
2022-11-20T22:51:32.859Z,99426.47
2022-11-20T22:54:34.589Z,99437.84
2022-11-20T22:57:36.201Z,99428.19
2022-11-20T23:00:37.873Z,99431.56
2022-11-20T23:03:42.335Z,99448.13
2022-11-20T23:06:43.987Z,99429.13
2022-11-20T23:09:45.702Z,99437.56
2022-11-20T23:12:47.471Z,99431.06
2022-11-20T23:15:49.084Z,99434.78
2022-11-20T23:18:55.674Z,99434.03
2022-11-20T23:21:57.256Z,99439.25
2022-11-20T23:24:58.861Z,99442.75
2022-11-20T23:28:00.532Z,99435.38
2022-11-20T23:31:02.754Z,99432.16
2022-11-20T23:34:05.828Z,99434.31
2022-11-20T23:37:07.933Z,99435.53
2022-11-20T23:40:10.431Z,99436.75
2022-11-20T23:43:14.955Z,99422.34
2022-11-20T23:46:17.161Z,99425.72
2022-11-20T23:49:20.147Z,99420.63
2022-11-20T23:52:22.169Z,99407.75
2022-11-20T23:55:23.939Z,99413.75
2022-11-20T23:58:30.367Z,99407.44
